Time;durP1;ratioP1;P1;durP2;ratioP2;P2;SDS_P1;SDS_P2;PMS_P1;PMS_P2;Temp;Humidity;BMP_temperature;BMP_pressure;BME280_temperature;BME280_humidity;BME280_pressure;Samples;Min_cycle;Max_cycle;Signal;HPM_P1;HPM_P2
2023/07/13 00:01:28;;;;;;;4.20;1.07;;;15.30;99.90;;;;;;5096313;28;20183;-42
2023/07/13 00:03:55;;;;;;;5.67;1.17;;;15.20;99.90;;;;;;5096009;28;20186;-40
2023/07/13 00:06:21;;;;;;;7.03;1.57;;;15.20;99.90;;;;;;5095888;28;20205;-42
2023/07/13 00:08:47;;;;;;;2.93;1.27;;;15.20;99.90;;;;;;5096126;28;20317;-42
2023/07/13 00:11:14;;;;;;;5.20;1.00;;;15.10;1.00;;;;;;5095942;28;20174;-42
2023/07/13 00:13:40;;;;;;;3.43;1.07;;;15.10;1.00;;;;;;5096165;28;20253;-41
2023/07/13 00:16:07;;;;;;;4.73;1.00;;;15.00;1.00;;;;;;5095735;28;20198;-42
2023/07/13 00:18:33;;;;;;;5.20;1.47;;;15.10;69.30;;;;;;5096074;28;20167;-40
2023/07/13 00:21:05;;;;;;;3.57;1.20;;;15.10;1.00;;;;;;5095735;28;20262;-41
2023/07/13 00:23:39;;;;;;;4.00;1.07;;;15.10;1.00;;;;;;5095946;28;20220;-43
2023/07/13 00:26:07;;;;;;;4.53;1.10;;;15.10;11.20;;;;;;5095962;28;20191;-40
2023/07/13 00:28:34;;;;;;;3.77;1.27;;;15.10;1.00;;;;;;5095966;28;20206;-42
2023/07/13 00:31:00;;;;;;;6.40;1.03;;;15.10;1.00;;;;;;5095466;28;20197;-42
2023/07/13 00:33:26;;;;;;;4.53;1.00;;;15.10;99.90;;;;;;5095485;28;20179;-42
2023/07/13 00:35:53;;;;;;;3.30;1.10;;;15.20;1.00;;;;;;5095690;28;20526;-43
2023/07/13 00:38:19;;;;;;;5.70;0.90;;;15.20;1.00;;;;;;5095632;28;20183;-40
2023/07/13 00:40:44;;;;;;;3.47;1.00;;;15.20;1.00;;;;;;5095278;28;20189;-42
2023/07/13 00:43:16;;;;;;;5.00;1.10;;;15.20;1.00;;;;;;5095323;28;20540;-43
2023/07/13 00:45:45;;;;;;;3.37;1.03;;;15.20;99.90;;;;;;5095521;28;20198;-41
2023/07/13 00:48:18;;;;;;;6.03;1.23;;;15.20;99.90;;;;;;5096795;28;20179;-41
2023/07/13 00:50:46;;;;;;;3.90;1.07;;;15.10;99.90;;;;;;5095493;28;20172;-42
2023/07/13 00:53:13;;;;;;;4.37;1.27;;;15.10;99.90;;;;;;5096369;28;20634;-42
2023/07/13 00:55:39;;;;;;;6.13;1.30;;;15.00;99.90;;;;;;5095089;28;20662;-43
2023/07/13 00:58:06;;;;;;;3.73;0.93;;;15.00;1.00;;;;;;5094853;28;20177;-41
2023/07/13 01:00:34;;;;;;;2.63;1.00;;;14.90;1.00;;;;;;5095241;28;20184;-41
2023/07/13 01:03:04;;;;;;;5.33;1.17;;;14.90;1.00;;;;;;5094889;28;20577;-42
2023/07/13 01:05:31;;;;;;;5.07;1.10;;;14.80;1.00;;;;;;5094840;28;20743;-42
2023/07/13 01:07:58;;;;;;;11.20;1.90;;;14.80;1.00;;;;;;5094946;28;20209;-40
2023/07/13 01:10:24;;;;;;;4.43;1.00;;;14.80;36.60;;;;;;5094863;28;20219;-42
2023/07/13 01:12:50;;;;;;;3.67;1.13;;;14.80;1.00;;;;;;5094924;28;20186;-42
2023/07/13 01:15:42;;;;;;;3.80;1.07;;;14.70;1.00;;;;;;5095127;28;20347;-42
2023/07/13 01:18:18;;;;;;;4.57;1.27;;;14.70;5.50;;;;;;5094930;28;20160;-41
2023/07/13 01:21:00;;;;;;;3.17;1.30;;;14.60;99.90;;;;;;5094849;28;20167;-40
2023/07/13 01:23:27;;;;;;;5.13;1.00;;;14.60;99.90;;;;;;5094985;28;20535;-43
2023/07/13 01:25:55;;;;;;;4.23;1.40;;;14.70;99.90;;;;;;5094600;28;20210;-41
2023/07/13 01:28:21;;;;;;;5.17;1.07;;;14.60;99.90;;;;;;5094681;28;20563;-42
2023/07/13 01:30:47;;;;;;;8.90;1.70;;;14.60;99.90;;;;;;5110030;28;20178;-43
2023/07/13 01:33:14;;;;;;;4.10;1.33;;;14.60;99.90;;;;;;5094647;28;20690;-41
2023/07/13 01:35:41;;;;;;;2.97;1.00;;;14.50;99.90;;;;;;5093880;28;20194;-43
2023/07/13 01:38:08;;;;;;;3.93;1.50;;;14.50;99.90;;;;;;5094249;28;20228;-40
2023/07/13 01:40:35;;;;;;;3.80;1.20;;;14.50;99.90;;;;;;5094426;28;20202;-43
2023/07/13 01:43:00;;;;;;;6.87;1.23;;;14.40;99.90;;;;;;5094764;28;20260;-41
2023/07/13 01:45:26;;;;;;;4.90;1.10;;;14.40;99.90;;;;;;5094228;28;20240;-41
2023/07/13 01:47:52;;;;;;;6.17;1.10;;;14.40;99.90;;;;;;5095669;28;20264;-41
2023/07/13 01:50:18;;;;;;;6.20;1.30;;;14.30;99.90;;;;;;5094143;28;20695;-46
2023/07/13 01:52:44;;;;;;;2.43;1.10;;;14.30;99.90;;;;;;5094199;28;20277;-46
2023/07/13 01:55:09;;;;;;;3.43;1.20;;;14.30;99.90;;;;;;5095028;28;20705;-47
2023/07/13 01:57:35;;;;;;;3.33;1.20;;;14.30;99.90;;;;;;5095476;28;20178;-46
2023/07/13 02:00:04;;;;;;;4.87;1.10;;;14.30;99.90;;;;;;5096268;28;20194;-47
2023/07/13 02:02:30;;;;;;;3.87;1.13;;;14.30;99.90;;;;;;5095884;28;20214;-47
2023/07/13 02:04:56;;;;;;;3.80;1.03;;;14.20;1.00;;;;;;5094501;28;20234;-44
2023/07/13 02:07:21;;;;;;;6.93;1.77;;;14.20;99.90;;;;;;5094045;28;20163;-44
2023/07/13 02:09:47;;;;;;;9.33;1.20;;;14.20;1.00;;;;;;5093935;28;20203;-44
2023/07/13 02:12:13;;;;;;;4.37;1.23;;;14.20;1.00;;;;;;5110278;28;20175;-45
2023/07/13 02:14:38;;;;;;;4.77;1.57;;;14.20;1.00;;;;;;5093614;28;20179;-45
2023/07/13 02:17:05;;;;;;;7.30;1.10;;;14.20;1.00;;;;;;5093685;28;20670;-46
2023/07/13 02:19:30;;;;;;;3.27;1.20;;;14.20;1.00;;;;;;5093863;28;20521;-46
2023/07/13 02:21:56;;;;;;;3.70;1.13;;;14.20;1.00;;;;;;5093588;28;20239;-46
2023/07/13 02:24:22;;;;;;;2.83;1.07;;;14.20;1.00;;;;;;5093692;28;20182;-46
2023/07/13 02:26:47;;;;;;;2.97;1.30;;;14.20;1.00;;;;;;5093715;28;20273;-46
2023/07/13 02:29:13;;;;;;;3.60;1.30;;;14.20;1.00;;;;;;5093426;28;20210;-45
2023/07/13 02:31:39;;;;;;;6.37;1.33;;;14.20;1.00;;;;;;5093453;28;20186;-45
2023/07/13 02:34:04;;;;;;;5.60;1.47;;;14.20;1.00;;;;;;5093469;28;20597;-45
2023/07/13 02:36:31;;;;;;;3.60;1.40;;;14.20;1.00;;;;;;5093398;28;20183;-46
2023/07/13 02:39:01;;;;;;;4.70;1.30;;;14.20;1.00;;;;;;5093444;28;20253;-47
2023/07/13 02:41:26;;;;;;;4.90;1.17;;;14.20;1.00;;;;;;5093678;28;20236;-46
2023/07/13 02:43:52;;;;;;;4.53;1.30;;;14.10;1.00;;;;;;5093676;28;20171;-47
2023/07/13 02:46:19;;;;;;;5.50;1.43;;;14.10;1.00;;;;;;5095104;28;20724;-45
2023/07/13 02:48:45;;;;;;;3.47;1.13;;;14.00;1.00;;;;;;5098911;28;20194;-47
2023/07/13 02:51:11;;;;;;;4.90;1.30;;;14.00;1.00;;;;;;5097530;28;20189;-47
2023/07/13 02:53:37;;;;;;;4.97;1.57;;;14.00;1.00;;;;;;5097752;28;20175;-47
2023/07/13 02:56:04;;;;;;;3.33;1.03;;;13.90;1.00;;;;;;5097416;28;20682;-47
2023/07/13 02:58:30;;;;;;;3.87;1.50;;;13.80;1.00;;;;;;5097040;28;20233;-46
2023/07/13 03:00:57;;;;;;;3.00;1.00;;;13.80;1.00;;;;;;5096985;28;20202;-47
2023/07/13 03:03:23;;;;;;;5.00;1.67;;;13.70;1.00;;;;;;5095873;28;20225;-46
2023/07/13 03:05:59;;;;;;;5.70;1.20;;;13.70;1.00;;;;;;5096017;28;20232;-46
2023/07/13 03:08:25;;;;;;;4.43;1.23;;;13.60;1.00;;;;;;5095758;28;20745;-46
2023/07/13 03:11:08;;;;;;;5.47;1.40;;;13.60;1.00;;;;;;5095953;28;20643;-46
2023/07/13 03:13:34;;;;;;;2.30;1.00;;;13.50;1.00;;;;;;5096094;28;20246;-45
2023/07/13 03:16:00;;;;;;;2.67;1.00;;;13.50;1.00;;;;;;5095843;28;20195;-47
2023/07/13 03:18:27;;;;;;;3.30;1.30;;;13.40;1.00;;;;;;5095594;28;20188;-47
2023/07/13 03:20:53;;;;;;;3.37;1.30;;;13.40;1.00;;;;;;5095853;28;20182;-48
2023/07/13 03:23:20;;;;;;;5.20;1.20;;;13.40;1.00;;;;;;5095847;28;20193;-46
2023/07/13 03:25:46;;;;;;;5.83;1.30;;;13.40;1.00;;;;;;5095749;28;20552;-47
2023/07/13 03:28:13;;;;;;;9.40;1.97;;;13.40;1.00;;;;;;5095794;28;20207;-46
2023/07/13 03:30:39;;;;;;;3.63;1.07;;;13.40;1.00;;;;;;5095550;28;20175;-48
2023/07/13 03:33:04;;;;;;;4.13;1.30;;;13.40;1.00;;;;;;5095502;28;20171;-47
2023/07/13 03:35:32;;;;;;;3.53;1.30;;;13.40;1.00;;;;;;5095592;28;20202;-47
2023/07/13 03:37:58;;;;;;;4.87;1.37;;;13.40;1.00;;;;;;5095609;28;20181;-47
2023/07/13 03:40:25;;;;;;;4.10;1.40;;;13.40;1.00;;;;;;5095600;28;20603;-46
2023/07/13 03:42:51;;;;;;;2.97;1.33;;;13.50;1.00;;;;;;5095512;28;20202;-47
2023/07/13 03:45:17;;;;;;;4.80;1.27;;;13.50;1.00;;;;;;5095274;28;20197;-46
2023/07/13 03:47:43;;;;;;;2.70;1.13;;;13.50;1.00;;;;;;5095483;28;20261;-46
2023/07/13 03:50:09;;;;;;;8.60;1.50;;;13.50;1.00;;;;;;5096486;28;20171;-40
2023/07/13 03:52:34;;;;;;;3.57;1.10;;;13.50;1.00;;;;;;5095137;28;20203;-41
2023/07/13 03:55:00;;;;;;;4.33;1.50;;;13.50;1.00;;;;;;5093804;28;20201;-43
2023/07/13 03:57:26;;;;;;;3.77;1.23;;;13.50;1.00;;;;;;5094588;28;20572;-42
2023/07/13 03:59:51;;;;;;;6.33;1.70;;;13.50;1.00;;;;;;5057980;28;1075812;-40
2023/07/13 04:02:17;;;;;;;4.83;1.40;;;13.60;1.00;;;;;;5094840;28;20635;-41
2023/07/13 04:04:43;;;;;;;3.97;1.20;;;13.60;1.00;;;;;;5096068;28;20194;-41
2023/07/13 04:07:09;;;;;;;2.27;0.93;;;13.70;1.00;;;;;;5096449;28;20165;-42
2023/07/13 04:09:35;;;;;;;4.30;1.40;;;13.70;1.00;;;;;;5096152;28;20259;-40
2023/07/13 04:12:01;;;;;;;4.53;1.53;;;13.70;1.00;;;;;;5096270;28;20223;-43
2023/07/13 04:14:26;;;;;;;4.87;1.83;;;13.70;1.00;;;;;;5096155;28;20228;-42
2023/07/13 04:16:54;;;;;;;2.60;1.20;;;13.80;1.00;;;;;;5096391;28;20220;-42
2023/07/13 04:19:20;;;;;;;4.63;1.47;;;13.80;1.00;;;;;;5096086;28;20188;-43
2023/07/13 04:21:46;;;;;;;3.80;1.47;;;13.80;1.00;;;;;;5096163;28;20212;-41
2023/07/13 04:24:11;;;;;;;4.50;1.70;;;13.90;1.00;;;;;;5095703;28;20262;-42
2023/07/13 04:26:38;;;;;;;4.57;1.57;;;13.90;1.00;;;;;;5095728;28;20561;-41
2023/07/13 04:29:04;;;;;;;3.07;1.30;;;14.00;1.00;;;;;;5095744;28;20217;-41
2023/07/13 04:31:30;;;;;;;4.70;1.03;;;14.00;1.00;;;;;;5096095;28;20569;-41
2023/07/13 04:33:57;;;;;;;6.77;1.60;;;14.10;1.00;;;;;;5111397;28;20203;-40
2023/07/13 04:36:22;;;;;;;4.20;1.53;;;14.10;1.00;;;;;;5095597;28;20191;-40
2023/07/13 04:38:48;;;;;;;6.40;1.43;;;14.20;1.00;;;;;;5095405;28;20211;-40
2023/07/13 04:41:15;;;;;;;5.47;1.67;;;14.20;1.00;;;;;;5095850;28;20586;-40
2023/07/13 04:43:41;;;;;;;8.63;1.50;;;14.20;1.00;;;;;;5095594;28;20186;-40
2023/07/13 04:46:12;;;;;;;7.43;1.70;;;14.30;1.00;;;;;;5095238;28;20201;-40
2023/07/13 04:48:38;;;;;;;2.97;1.33;;;14.30;1.00;;;;;;5096819;28;20738;-45
2023/07/13 04:51:04;;;;;;;6.23;1.30;;;14.40;1.00;;;;;;5095182;28;20257;-43
2023/07/13 04:53:30;;;;;;;4.73;1.60;;;14.40;1.00;;;;;;5093777;28;20651;-44
2023/07/13 04:55:56;;;;;;;5.80;1.57;;;14.50;1.00;;;;;;5094929;28;20213;-46
2023/07/13 04:58:23;;;;;;;5.73;1.70;;;14.50;1.00;;;;;;5094905;28;20198;-46
2023/07/13 05:00:49;;;;;;;5.40;1.57;;;14.60;1.00;;;;;;5095253;28;20268;-43
2023/07/13 05:03:15;;;;;;;6.97;1.70;;;14.60;1.00;;;;;;5095198;28;20667;-46
2023/07/13 05:05:40;;;;;;;6.80;1.40;;;14.70;1.00;;;;;;5094805;28;20273;-45
2023/07/13 05:08:07;;;;;;;6.90;1.60;;;14.80;1.00;;;;;;5094852;28;20215;-45
2023/07/13 05:10:33;;;;;;;5.87;1.57;;;14.90;1.00;;;;;;5094162;28;20313;-45
2023/07/13 05:12:58;;;;;;;5.80;2.13;;;14.90;1.00;;;;;;5095018;28;20258;-45
2023/07/13 05:15:25;;;;;;;6.00;1.67;;;15.10;1.00;;;;;;5094693;28;20222;-45
2023/07/13 05:17:51;;;;;;;7.67;2.13;;;15.10;1.00;;;;;;5095049;28;20630;-45
2023/07/13 05:20:18;;;;;;;6.77;1.90;;;15.20;1.00;;;;;;5094738;28;20175;-46
2023/07/13 05:22:46;;;;;;;8.23;1.60;;;15.20;1.00;;;;;;5094740;28;20262;-46
2023/07/13 05:25:12;;;;;;;5.30;1.40;;;15.30;1.00;;;;;;5095814;28;20226;-44
2023/07/13 05:27:38;;;;;;;4.17;1.80;;;15.40;1.00;;;;;;5095813;28;20202;-44
2023/07/13 05:30:04;;;;;;;4.73;1.73;;;15.40;1.00;;;;;;5095651;28;20234;-44
2023/07/13 05:32:30;;;;;;;6.30;2.07;;;15.40;1.00;;;;;;5095960;28;20219;-45
2023/07/13 05:34:55;;;;;;;6.23;1.53;;;15.50;1.00;;;;;;5094746;28;20553;-45
2023/07/13 05:37:21;;;;;;;12.77;2.20;;;15.50;1.00;;;;;;5094344;28;20171;-45
2023/07/13 05:39:47;;;;;;;12.00;2.10;;;15.60;1.00;;;;;;5094531;28;20201;-46
2023/07/13 05:42:12;;;;;;;5.97;1.90;;;15.60;1.00;;;;;;5094320;28;20178;-46
2023/07/13 05:44:38;;;;;;;6.73;1.83;;;15.60;1.00;;;;;;5094143;28;20185;-45
2023/07/13 05:47:04;;;;;;;8.80;2.33;;;15.70;1.00;;;;;;5094412;28;20258;-46
2023/07/13 05:49:30;;;;;;;9.77;2.13;;;15.70;1.00;;;;;;5096225;28;20194;-41
2023/07/13 05:51:56;;;;;;;5.70;1.97;;;15.80;1.00;;;;;;5094197;28;20186;-40
2023/07/13 05:54:21;;;;;;;8.37;2.10;;;15.80;1.00;;;;;;5094173;28;20173;-41
2023/07/13 05:56:47;;;;;;;9.10;2.10;;;15.90;1.00;;;;;;5094164;28;20209;-41
2023/07/13 05:59:13;;;;;;;4.73;1.77;;;16.00;1.00;;;;;;5093862;28;20285;-40
2023/07/13 06:01:38;;;;;;;6.87;2.10;;;16.10;1.00;;;;;;5093858;28;20189;-40
2023/07/13 06:04:04;;;;;;;9.00;2.10;;;16.20;1.00;;;;;;5093997;28;20167;-42
2023/07/13 06:06:30;;;;;;;7.37;2.27;;;16.30;1.00;;;;;;5094078;28;20194;-41
2023/07/13 06:08:55;;;;;;;6.67;2.10;;;16.50;1.00;;;;;;5094091;28;20202;-42
2023/07/13 06:11:24;;;;;;;5.53;2.27;;;16.60;1.00;;;;;;5093847;28;20197;-40
2023/07/13 06:13:50;;;;;;;10.80;2.40;;;16.80;1.00;;;;;;5093943;28;20205;-40
2023/07/13 06:16:16;;;;;;;5.97;2.10;;;16.90;1.00;;;;;;5093723;28;20198;-41
2023/07/13 06:18:42;;;;;;;8.20;2.43;;;17.00;1.00;;;;;;5093808;28;20255;-42
2023/07/13 06:21:13;;;;;;;8.23;2.03;;;17.20;1.00;;;;;;5094172;28;20179;-43
2023/07/13 06:23:38;;;;;;;10.90;2.73;;;17.20;1.00;;;;;;5092411;28;20190;-43
2023/07/13 06:26:05;;;;;;;14.53;2.30;;;17.30;1.00;;;;;;5093610;28;20372;-42
2023/07/13 06:28:31;;;;;;;5.67;2.50;;;17.40;1.00;;;;;;5093591;28;20293;-43
2023/07/13 06:31:00;;;;;;;8.57;2.30;;;17.40;1.00;;;;;;5093817;28;20232;-41
2023/07/13 06:33:26;;;;;;;8.00;2.73;;;17.40;1.00;;;;;;5093618;28;20182;-41
2023/07/13 06:35:52;;;;;;;6.40;1.97;;;17.30;1.00;;;;;;5093464;28;20678;-42
2023/07/13 06:38:18;;;;;;;8.47;2.43;;;17.30;1.00;;;;;;5093782;28;20190;-42
2023/07/13 06:40:44;;;;;;;8.20;2.57;;;17.30;1.00;;;;;;5093697;28;20189;-42
2023/07/13 06:43:09;;;;;;;7.13;2.30;;;17.30;1.00;;;;;;5094159;28;20182;-40
2023/07/13 06:45:45;;;;;;;12.10;2.47;;;17.40;1.00;;;;;;5093541;28;20199;-43
2023/07/13 06:48:11;;;;;;;9.80;2.73;;;17.40;1.00;;;;;;5094481;28;20198;-46
2023/07/13 06:50:37;;;;;;;7.60;1.97;;;17.40;1.00;;;;;;5093379;28;20636;-46
2023/07/13 06:53:02;;;;;;;4.73;1.90;;;17.40;1.00;;;;;;5093296;28;20184;-46
2023/07/13 06:55:28;;;;;;;8.37;2.50;;;17.50;1.00;;;;;;5093218;28;20718;-44
2023/07/13 06:57:53;;;;;;;6.40;2.30;;;17.60;1.00;;;;;;5093870;28;20561;-47
2023/07/13 07:00:19;;;;;;;11.67;2.50;;;17.60;1.00;;;;;;5093137;28;20667;-47
2023/07/13 07:02:45;;;;;;;10.00;2.53;;;17.60;1.00;;;;;;5093262;28;20648;-47
2023/07/13 07:05:10;;;;;;;5.83;2.33;;;17.70;1.00;;;;;;5093427;28;20193;-46
2023/07/13 07:07:36;;;;;;;10.37;2.43;;;17.70;1.00;;;;;;5093232;28;20171;-46
2023/07/13 07:10:02;;;;;;;10.80;3.20;;;17.80;1.00;;;;;;5093140;28;20245;-46
2023/07/13 07:12:29;;;;;;;12.37;2.63;;;17.80;1.00;;;;;;5093185;28;20178;-46
2023/07/13 07:14:54;;;;;;;7.90;2.13;;;17.90;99.90;;;;;;5093411;28;20191;-46
2023/07/13 07:17:20;;;;;;;9.03;2.03;;;17.90;1.00;;;;;;5108772;28;20181;-45
2023/07/13 07:19:46;;;;;;;10.30;2.30;;;18.10;1.00;;;;;;5093014;28;20214;-47
2023/07/13 07:22:11;;;;;;;10.13;2.53;;;18.20;1.00;;;;;;5108627;28;20217;-45
2023/07/13 07:24:37;;;;;;;7.10;2.37;;;18.40;1.00;;;;;;5093012;28;20546;-44
2023/07/13 07:27:03;;;;;;;15.30;2.50;;;18.40;99.90;;;;;;5093014;28;20215;-45
2023/07/13 07:29:28;;;;;;;9.67;2.50;;;18.40;1.00;;;;;;5092881;28;20202;-47
2023/07/13 07:31:54;;;;;;;9.70;2.43;;;18.50;99.90;;;;;;5093284;28;20182;-46
2023/07/13 07:34:19;;;;;;;7.67;2.73;;;18.50;99.90;;;;;;5096723;28;20175;-45
2023/07/13 07:36:45;;;;;;;11.23;3.07;;;18.50;99.90;;;;;;5096552;28;20195;-46
2023/07/13 07:39:11;;;;;;;7.73;2.50;;;18.50;99.90;;;;;;5097420;28;20205;-46
2023/07/13 07:41:37;;;;;;;10.47;2.60;;;18.50;99.90;;;;;;5096630;28;20183;-47
2023/07/13 07:44:03;;;;;;;9.50;2.97;;;18.60;99.90;;;;;;5096526;28;20596;-45
2023/07/13 07:46:29;;;;;;;13.47;3.27;;;18.60;99.90;;;;;;5096417;28;20561;-46
2023/07/13 07:48:55;;;;;;;9.40;2.67;;;18.70;99.90;;;;;;5097797;28;20210;-43
2023/07/13 07:51:21;;;;;;;8.33;2.87;;;18.70;99.90;;;;;;5096655;28;20177;-44
2023/07/13 07:53:47;;;;;;;5.93;2.60;;;18.70;99.90;;;;;;5095007;28;20269;-43
2023/07/13 07:56:13;;;;;;;9.13;2.40;;;18.80;99.90;;;;;;5096117;28;20198;-45
2023/07/13 07:58:39;;;;;;;9.67;2.77;;;18.80;99.90;;;;;;5096048;28;20198;-43
2023/07/13 08:01:05;;;;;;;10.53;2.50;;;18.90;99.90;;;;;;5096183;28;20215;-43
2023/07/13 08:03:31;;;;;;;14.37;3.17;;;19.00;99.90;;;;;;5096142;28;20183;-43
2023/07/13 08:05:57;;;;;;;10.60;2.67;;;19.10;1.00;;;;;;5096340;28;20203;-43
2023/07/13 08:08:22;;;;;;;8.37;2.20;;;19.10;1.00;;;;;;5096497;28;20527;-44
2023/07/13 08:10:48;;;;;;;8.87;2.40;;;19.10;99.90;;;;;;5096025;28;20178;-42
2023/07/13 08:13:14;;;;;;;7.83;2.33;;;19.20;1.00;;;;;;5095944;28;20175;-42
2023/07/13 08:15:40;;;;;;;8.40;2.20;;;19.30;1.00;;;;;;5095745;28;20672;-43
2023/07/13 08:18:06;;;;;;;7.70;2.50;;;19.40;1.00;;;;;;5095742;28;20659;-44
2023/07/13 08:20:31;;;;;;;7.20;2.13;;;19.40;1.00;;;;;;5095771;28;20182;-41
2023/07/13 08:22:57;;;;;;;7.20;2.07;;;19.50;1.00;;;;;;5095715;28;20167;-45
2023/07/13 08:25:22;;;;;;;6.97;1.87;;;19.60;1.00;;;;;;5095687;28;20195;-43
2023/07/13 08:27:48;;;;;;;7.80;2.10;;;19.60;99.90;;;;;;5095652;28;20177;-42
2023/07/13 08:30:14;;;;;;;5.73;2.27;;;19.70;50.60;;;;;;5095568;28;20202;-42
2023/07/13 08:32:39;;;;;;;7.97;2.13;;;19.80;1.00;;;;;;5095557;28;20171;-42
2023/07/13 08:35:05;;;;;;;4.20;1.87;;;19.90;99.90;;;;;;5095697;28;20195;-43
2023/07/13 08:37:31;;;;;;;4.37;2.00;;;19.90;99.90;;;;;;5095696;28;20228;-44
2023/07/13 08:39:57;;;;;;;8.43;2.07;;;20.00;99.90;;;;;;5095808;28;20175;-42
2023/07/13 08:42:36;;;;;;;6.57;2.40;;;20.20;1.00;;;;;;5095336;28;20206;-42
2023/07/13 08:45:17;;;;;;;6.50;2.67;;;20.20;99.90;;;;;;5094299;28;20207;-43
2023/07/13 08:47:49;;;;;;;11.27;2.50;;;20.30;99.90;;;;;;5095238;28;20197;-43
2023/07/13 08:50:19;;;;;;;6.20;2.20;;;20.40;24.40;;;;;;5096066;28;20239;-48
2023/07/13 08:52:46;;;;;;;4.00;1.47;;;20.60;99.90;;;;;;5095050;28;20183;-47
2023/07/13 08:55:22;;;;;;;5.83;2.00;;;20.60;99.90;;;;;;5094993;28;20257;-49
2023/07/13 08:58:13;;;;;;;7.43;2.00;;;20.80;99.90;;;;;;5095883;28;20163;-48
2023/07/13 09:01:02;;;;;;;4.20;1.60;;;20.90;99.90;;;;;;5095252;28;20171;-49
2023/07/13 09:03:34;;;;;;;5.90;1.90;;;21.00;99.90;;;;;;5095109;28;20643;-48
2023/07/13 09:06:02;;;;;;;6.40;2.10;;;21.10;99.90;;;;;;5094984;28;20734;-49
2023/07/13 09:08:58;;;;;;;8.50;2.47;;;21.20;99.90;;;;;;5094691;28;20691;-49
2023/07/13 09:11:39;;;;;;;3.70;1.73;;;21.30;1.00;;;;;;5094699;28;20731;-48
2023/07/13 09:14:31;;;;;;;7.57;2.37;;;21.30;99.90;;;;;;5110409;28;20167;-49
2023/07/13 09:16:56;;;;;;;5.23;1.77;;;21.30;1.00;;;;;;5095245;28;20256;-49
2023/07/13 09:19:29;;;;;;;6.80;1.87;;;21.30;1.00;;;;;;5095164;28;20612;-49
2023/07/13 09:21:56;;;;;;;6.27;1.70;;;21.40;1.00;;;;;;5094666;28;20191;-49
2023/07/13 09:24:36;;;;;;;6.27;1.93;;;21.50;1.00;;;;;;5094786;28;20183;-48
2023/07/13 09:27:12;;;;;;;8.50;2.20;;;21.50;11.10;;;;;;5094795;28;20170;-48
2023/07/13 09:29:43;;;;;;;6.70;2.03;;;21.50;1.00;;;;;;5110084;28;20226;-48
2023/07/13 09:32:13;;;;;;;7.93;2.13;;;21.50;1.00;;;;;;5094327;28;20172;-49
2023/07/13 09:34:38;;;;;;;9.23;2.00;;;21.60;99.90;;;;;;5094768;28;20183;-48
2023/07/13 09:37:04;;;;;;;9.13;2.33;;;21.90;1.00;;;;;;5094626;28;20697;-47
2023/07/13 09:39:35;;;;;;;5.63;1.67;;;22.10;1.00;;;;;;5094227;28;20175;-48
2023/07/13 09:42:17;;;;;;;7.80;2.10;;;22.20;99.90;;;;;;5094471;28;20234;-50
2023/07/13 09:44:55;;;;;;;6.93;2.00;;;22.30;99.90;;;;;;5094672;28;20194;-48
2023/07/13 09:47:30;;;;;;;6.70;2.00;;;22.40;1.00;;;;;;5094392;28;20175;-48
2023/07/13 09:49:58;;;;;;;10.07;1.93;;;22.60;1.00;;;;;;5095276;28;20268;-48
2023/07/13 09:52:24;;;;;;;7.13;2.40;;;22.60;1.00;;;;;;5094103;28;20175;-49
2023/07/13 09:54:51;;;;;;;6.57;1.77;;;22.50;1.00;;;;;;5093700;28;20236;-50
2023/07/13 09:57:19;;;;;;;5.77;1.83;;;22.50;1.00;;;;;;5093948;28;20230;-49
2023/07/13 09:59:49;;;;;;;5.10;1.80;;;22.40;99.90;;;;;;5093857;28;20603;-49
2023/07/13 10:02:34;;;;;;;7.73;1.90;;;22.30;51.30;;;;;;5093943;28;20159;-50
2023/07/13 10:05:05;;;;;;;7.87;2.30;;;22.20;99.90;;;;;;5093704;28;20585;-49
2023/07/13 10:07:37;;;;;;;7.40;2.30;;;22.20;1.00;;;;;;5094454;28;20159;-48
2023/07/13 10:10:03;;;;;;;8.70;1.80;;;22.20;1.00;;;;;;5093721;28;20240;-50
2023/07/13 10:12:35;;;;;;;6.50;1.97;;;22.40;96.70;;;;;;5093989;28;20579;-49
2023/07/13 10:15:03;;;;;;;9.03;1.83;;;22.40;99.90;;;;;;5094016;28;20285;-48
2023/07/13 10:17:32;;;;;;;8.13;2.23;;;22.50;99.90;;;;;;5089358;28;20262;-50
2023/07/13 10:20:04;;;;;;;9.23;2.03;;;22.60;1.00;;;;;;5091548;28;20179;-49
2023/07/13 10:22:50;;;;;;;5.00;1.73;;;22.70;98.90;;;;;;5092831;28;20155;-51
2023/07/13 10:25:22;;;;;;;4.33;1.77;;;22.80;99.90;;;;;;5093860;28;20260;-50
2023/07/13 10:27:58;;;;;;;3.53;1.63;;;22.80;1.00;;;;;;5093439;28;20673;-47
2023/07/13 10:30:28;;;;;;;10.40;1.40;;;23.10;99.90;;;;;;5093772;28;20534;-49
2023/07/13 10:32:53;;;;;;;4.53;1.60;;;23.20;99.90;;;;;;5094208;28;20179;-49
2023/07/13 10:35:22;;;;;;;10.80;3.17;;;23.30;99.90;;;;;;5093607;28;20709;-43
2023/07/13 10:38:11;;;;;;;3.70;1.50;;;23.40;1.00;;;;;;5093768;28;20178;-43
2023/07/13 10:40:42;;;;;;;5.03;1.90;;;23.30;99.90;;;;;;5093641;28;20243;-42
2023/07/13 10:43:19;;;;;;;4.53;1.83;;;23.30;1.00;;;;;;5093443;28;20163;-43
2023/07/13 10:45:49;;;;;;;5.57;1.47;;;23.20;99.90;;;;;;5093589;28;20744;-42
2023/07/13 10:48:16;;;;;;;6.17;1.63;;;23.30;99.90;;;;;;5094666;28;20159;-44
2023/07/13 10:50:44;;;;;;;6.40;1.63;;;23.40;67.40;;;;;;5093276;28;20171;-43
2023/07/13 10:53:30;;;;;;;5.13;1.60;;;23.50;99.90;;;;;;5093556;28;20267;-42
2023/07/13 10:56:29;;;;;;;4.43;1.63;;;23.40;1.00;;;;;;5093395;28;20225;-44
2023/07/13 10:59:11;;;;;;;3.07;1.50;;;23.30;1.00;;;;;;5085015;28;20730;-43
2023/07/13 11:02:06;;;;;;;5.13;1.40;;;23.30;1.00;;;;;;5093104;28;20702;-45
2023/07/13 11:04:48;;;;;;;5.10;1.33;;;23.30;99.90;;;;;;5093136;28;20163;-43
2023/07/13 11:07:25;;;;;;;3.90;1.90;;;23.30;96.00;;;;;;5093951;28;20666;-44
2023/07/13 11:09:58;;;;;;;7.30;1.60;;;23.40;1.00;;;;;;5097285;28;20316;-43
2023/07/13 11:12:24;;;;;;;5.00;1.40;;;23.60;99.90;;;;;;5097369;28;20612;-43
2023/07/13 11:14:56;;;;;;;5.37;1.63;;;23.70;1.00;;;;;;5097180;28;20282;-42
2023/07/13 11:17:34;;;;;;;4.07;1.57;;;23.70;99.90;;;;;;5096971;28;20170;-44
2023/07/13 11:20:12;;;;;;;5.27;1.80;;;23.60;1.00;;;;;;5096964;28;20186;-43
2023/07/13 11:22:50;;;;;;;4.60;1.60;;;23.60;99.90;;;;;;5096867;28;20293;-42
2023/07/13 11:25:28;;;;;;;7.97;1.40;;;23.70;99.90;;;;;;5096744;28;20226;-42
2023/07/13 11:28:12;;;;;;;4.30;1.30;;;23.60;1.00;;;;;;5097179;28;20217;-42
2023/07/13 11:30:42;;;;;;;4.20;1.30;;;23.60;1.00;;;;;;5097010;28;20179;-41
2023/07/13 11:33:19;;;;;;;3.40;1.40;;;23.70;99.90;;;;;;5096394;28;20231;-43
2023/07/13 11:35:59;;;;;;;7.23;1.57;;;23.70;1.00;;;;;;5096451;28;20226;-43
2023/07/13 11:38:39;;;;;;;6.03;1.80;;;23.70;99.90;;;;;;5096976;28;20171;-41
2023/07/13 11:41:16;;;;;;;4.13;1.30;;;23.80;1.00;;;;;;5096606;28;20177;-43
2023/07/13 11:43:42;;;;;;;3.60;1.33;;;23.90;1.00;;;;;;5096835;28;20604;-40
2023/07/13 11:46:15;;;;;;;4.97;1.40;;;24.10;44.40;;;;;;5096933;28;20195;-44
2023/07/13 11:48:41;;;;;;;3.47;1.50;;;24.40;99.90;;;;;;5097271;28;20206;-48
2023/07/13 11:51:15;;;;;;;3.87;1.30;;;24.50;1.00;;;;;;5096892;28;20193;-48
2023/07/13 11:53:45;;;;;;;5.77;2.10;;;24.60;80.00;;;;;;5096550;28;20160;-48
2023/07/13 11:56:12;;;;;;;5.03;2.13;;;24.60;51.60;;;;;;5096222;28;20194;-47
2023/07/13 11:58:38;;;;;;;6.30;1.70;;;24.70;99.90;;;;;;5096113;28;20190;-49
2023/07/13 12:01:05;;;;;;;3.63;1.37;;;24.60;99.90;;;;;;5096432;28;20211;-49
2023/07/13 12:03:33;;;;;;;2.60;1.00;;;24.50;1.00;;;;;;5096353;28;20544;-49
2023/07/13 12:06:21;;;;;;;4.47;1.60;;;24.50;28.60;;;;;;5096238;28;20209;-49
2023/07/13 12:08:48;;;;;;;8.00;1.40;;;24.60;99.90;;;;;;5104231;22;20231;-49
2023/07/13 12:11:16;;;;;;;4.03;1.20;;;24.80;21.90;;;;;;5075948;28;20215;-50
2023/07/13 12:13:45;;;;;;;4.90;1.50;;;24.80;1.00;;;;;;5076499;28;20171;-48
2023/07/13 12:16:15;;;;;;;2.27;1.23;;;24.80;1.00;;;;;;5075749;28;20198;-48
2023/07/13 12:18:47;;;;;;;2.57;1.10;;;24.80;33.10;;;;;;5075566;28;20533;-49
2023/07/13 12:21:17;;;;;;;5.13;1.20;;;24.80;1.00;;;;;;5075887;28;20583;-48
2023/07/13 12:23:46;;;;;;;3.07;1.30;;;24.90;1.00;;;;;;5075748;28;20206;-48
2023/07/13 12:26:12;;;;;;;3.43;1.27;;;24.80;16.60;;;;;;5075566;28;20196;-48
2023/07/13 12:28:56;;;;;;;6.53;1.13;;;25.00;99.90;;;;;;5075377;28;20204;-48
2023/07/13 12:31:57;;;;;;;3.83;1.20;;;25.20;1.00;;;;;;5075648;28;20160;-50
2023/07/13 12:34:25;;;;;;;3.87;1.57;;;25.40;1.00;;;;;;4994038;28;20269;-49
2023/07/13 12:37:00;;;;;;;4.57;1.40;;;25.50;1.00;;;;;;5059907;28;20270;-50
2023/07/13 12:39:36;;;;;;;3.77;1.30;;;25.70;99.90;;;;;;5075424;28;20203;-49
2023/07/13 12:42:34;;;;;;;5.10;1.63;;;25.80;1.00;;;;;;5075485;28;20194;-50
2023/07/13 12:45:04;;;;;;;3.73;1.23;;;25.70;1.00;;;;;;5059453;28;20234;-49
2023/07/13 12:47:30;;;;;;;2.57;1.40;;;25.70;99.90;;;;;;5075359;28;20155;-50
2023/07/13 12:49:59;;;;;;;3.63;1.30;;;25.70;99.90;;;;;;5075955;28;20238;-48
2023/07/13 12:52:30;;;;;;;4.00;1.47;;;25.70;99.90;;;;;;5074996;28;20167;-48
2023/07/13 12:55:05;;;;;;;3.13;1.40;;;25.80;99.90;;;;;;5075216;28;20245;-50
2023/07/13 12:57:31;;;;;;;3.60;1.50;;;25.80;99.90;;;;;;5075620;28;20175;-49
2023/07/13 12:59:56;;;;;;;3.17;1.00;;;25.80;1.00;;;;;;5074997;28;20180;-47
2023/07/13 13:02:32;;;;;;;4.53;1.27;;;25.80;99.90;;;;;;5074739;28;20243;-49